createdAt,value
2022-10-10T00:00:29.670Z,9.76
2022-10-10T00:01:29.815Z,9.79
2022-10-10T00:02:29.664Z,9.79
2022-10-10T00:03:29.615Z,9.80
2022-10-10T00:04:29.608Z,9.83
2022-10-10T00:05:29.595Z,9.86
2022-10-10T00:06:32.962Z,9.84
2022-10-10T00:07:29.637Z,9.83
2022-10-10T00:08:29.582Z,9.83
2022-10-10T00:09:29.549Z,9.82
2022-10-10T00:10:29.557Z,9.80
2022-10-10T00:11:29.513Z,9.79
2022-10-10T00:12:29.526Z,9.76
2022-10-10T00:13:29.514Z,9.79
2022-10-10T00:14:32.493Z,9.77
2022-10-10T00:15:29.459Z,9.77
2022-10-10T00:16:29.473Z,9.80
2022-10-10T00:17:29.425Z,9.94
2022-10-10T00:18:29.430Z,10.15
2022-10-10T00:19:29.409Z,10.22
2022-10-10T00:20:29.390Z,10.25
2022-10-10T00:21:29.450Z,10.31
2022-10-10T00:22:29.365Z,10.38
2022-10-10T00:23:29.374Z,10.48
2022-10-10T00:24:29.350Z,10.51
2022-10-10T00:25:29.319Z,10.54
2022-10-10T00:26:29.317Z,10.56
2022-10-10T00:27:29.306Z,10.56
2022-10-10T00:28:29.410Z,10.56
2022-10-10T00:29:29.269Z,10.74
2022-10-10T00:30:29.260Z,10.78
2022-10-10T00:31:29.263Z,10.79
2022-10-10T00:32:29.259Z,10.79
2022-10-10T00:33:29.242Z,10.79
2022-10-10T00:34:29.202Z,10.81
2022-10-10T00:35:29.260Z,10.79
2022-10-10T00:36:29.184Z,10.79
2022-10-10T00:37:29.155Z,10.76
2022-10-10T00:38:29.165Z,10.76
2022-10-10T00:39:29.138Z,10.75
2022-10-10T00:40:29.146Z,10.74
2022-10-10T00:41:29.114Z,10.74
2022-10-10T00:42:29.094Z,10.69
2022-10-10T00:43:29.089Z,10.69
2022-10-10T00:44:29.094Z,10.68
2022-10-10T00:45:29.060Z,10.67
2022-10-10T00:46:29.055Z,10.67
2022-10-10T00:47:29.025Z,10.67
2022-10-10T00:48:29.068Z,10.64
2022-10-10T00:49:29.012Z,10.63
2022-10-10T00:50:29.020Z,10.59
2022-10-10T00:51:28.983Z,10.54
2022-10-10T00:52:28.992Z,10.56
2022-10-10T00:53:29.015Z,10.53
2022-10-10T00:54:28.939Z,10.53
2022-10-10T00:55:28.920Z,10.51
2022-10-10T00:56:28.915Z,10.51
2022-10-10T00:57:28.930Z,10.49
2022-10-10T00:58:28.894Z,10.54
2022-10-10T00:59:28.894Z,10.60
2022-10-10T01:00:28.860Z,10.75
2022-10-10T01:01:28.841Z,10.96
2022-10-10T01:02:28.835Z,11.12
2022-10-10T01:03:28.814Z,11.26
2022-10-10T01:04:28.825Z,11.45
2022-10-10T01:05:28.832Z,11.48
2022-10-10T01:06:28.803Z,11.47
2022-10-10T01:07:28.807Z,11.50
2022-10-10T01:08:28.797Z,11.50
2022-10-10T01:09:28.732Z,11.50
2022-10-10T01:10:28.748Z,11.45
2022-10-10T01:11:28.708Z,11.48
2022-10-10T01:12:28.740Z,11.45
2022-10-10T01:13:28.715Z,11.43
2022-10-10T01:14:28.670Z,11.40
2022-10-10T01:15:28.677Z,11.43
2022-10-10T01:16:28.647Z,11.44
2022-10-10T01:17:28.650Z,11.43
2022-10-10T01:18:28.661Z,11.40
2022-10-10T01:19:28.614Z,11.37
2022-10-10T01:20:28.621Z,11.36
2022-10-10T01:21:28.592Z,11.30
2022-10-10T01:22:28.597Z,11.27
2022-10-10T01:23:28.545Z,11.22
2022-10-10T01:24:28.536Z,11.17
2022-10-10T01:25:28.520Z,11.12
2022-10-10T01:26:28.537Z,11.10
2022-10-10T01:27:31.412Z,11.07
2022-10-10T01:28:28.549Z,11.05
2022-10-10T01:29:28.468Z,11.02
2022-10-10T01:30:28.460Z,10.97
2022-10-10T01:31:28.465Z,10.96
2022-10-10T01:32:28.456Z,10.94
2022-10-10T01:33:28.442Z,10.93
2022-10-10T01:34:28.413Z,10.92
2022-10-10T01:35:28.383Z,10.87
2022-10-10T01:36:28.370Z,10.84
2022-10-10T01:37:28.395Z,10.82
2022-10-10T01:38:28.378Z,10.81
2022-10-10T01:39:28.328Z,10.81
2022-10-10T01:40:28.325Z,10.79
2022-10-10T01:41:28.309Z,10.75
2022-10-10T01:42:28.302Z,10.74
2022-10-10T01:43:28.313Z,10.78
2022-10-10T01:44:28.272Z,10.75
2022-10-10T01:45:28.247Z,10.72
2022-10-10T01:46:28.241Z,10.69
2022-10-10T01:47:28.226Z,10.69
2022-10-10T01:48:28.242Z,10.68
2022-10-10T01:49:28.203Z,10.64
2022-10-10T01:50:28.181Z,10.63
2022-10-10T01:51:28.211Z,10.64
2022-10-10T01:52:28.166Z,10.63
2022-10-10T01:53:28.138Z,10.63
2022-10-10T01:54:28.153Z,10.61
2022-10-10T01:55:28.115Z,10.61
2022-10-10T01:56:28.111Z,10.63
2022-10-10T01:57:28.104Z,10.61
2022-10-10T01:58:28.113Z,10.60
2022-10-10T01:59:28.072Z,10.61
2022-10-10T02:04:14.389Z,10.63
2022-10-10T02:05:15.365Z,10.60
2022-10-10T02:06:15.357Z,10.61
2022-10-10T02:07:15.346Z,10.64
2022-10-10T02:08:15.333Z,10.67
2022-10-10T02:09:15.334Z,10.64
2022-10-10T02:10:15.307Z,10.68
2022-10-10T02:11:15.284Z,10.72
2022-10-10T02:12:15.261Z,10.72
2022-10-10T02:13:15.261Z,10.71
2022-10-10T02:14:15.277Z,10.72
2022-10-10T02:15:15.236Z,10.74
2022-10-10T02:16:15.241Z,10.72
2022-10-10T02:17:15.200Z,10.71
2022-10-10T02:18:15.182Z,10.69
2022-10-10T02:19:15.186Z,10.75
2022-10-10T02:20:15.170Z,10.86
2022-10-10T02:21:15.190Z,10.92
2022-10-10T02:22:15.133Z,11.04
2022-10-10T02:23:15.130Z,11.17
2022-10-10T02:24:15.102Z,11.29
2022-10-10T02:25:15.105Z,11.36
2022-10-10T02:26:15.103Z,11.50
2022-10-10T02:27:15.097Z,11.62
2022-10-10T02:28:15.097Z,11.66
2022-10-10T02:29:15.038Z,11.73
2022-10-10T02:30:15.029Z,11.73
2022-10-10T02:31:15.023Z,11.72
2022-10-10T02:32:15.080Z,11.72
2022-10-10T02:33:14.983Z,11.77
2022-10-10T02:34:14.977Z,11.81
2022-10-10T02:35:14.955Z,11.86
2022-10-10T02:36:14.940Z,11.90
2022-10-10T02:37:14.970Z,12.00
2022-10-10T02:38:14.938Z,11.99
2022-10-10T02:39:14.903Z,11.97
2022-10-10T02:40:14.910Z,11.97
2022-10-10T02:41:14.876Z,11.97
2022-10-10T02:42:14.898Z,11.97
2022-10-10T02:43:14.846Z,11.97
2022-10-10T02:44:14.824Z,11.94
2022-10-10T02:45:14.818Z,11.87
2022-10-10T02:46:14.811Z,11.83
2022-10-10T02:47:14.854Z,11.78
2022-10-10T02:48:14.780Z,11.72
2022-10-10T02:49:14.797Z,11.69
2022-10-10T02:50:14.757Z,11.65
2022-10-10T02:51:14.813Z,11.62
2022-10-10T02:52:14.749Z,11.59
2022-10-10T02:53:14.710Z,11.52
2022-10-10T02:54:14.715Z,11.48
2022-10-10T02:55:14.730Z,11.43
2022-10-10T02:56:14.690Z,11.40
2022-10-10T02:57:14.656Z,11.37
2022-10-10T02:58:14.671Z,11.36
2022-10-10T02:59:14.648Z,11.36
2022-10-10T03:00:14.635Z,11.35
2022-10-10T03:01:14.658Z,11.33
2022-10-10T03:02:14.595Z,11.35
2022-10-10T03:03:14.590Z,11.33
2022-10-10T03:04:14.556Z,11.33
2022-10-10T03:05:14.560Z,11.30
2022-10-10T03:06:14.548Z,11.30
2022-10-10T03:07:14.516Z,11.26
2022-10-10T03:08:14.549Z,11.26
2022-10-10T03:09:14.486Z,11.22
2022-10-10T03:10:14.491Z,11.17
2022-10-10T03:11:14.501Z,11.12
2022-10-10T03:12:14.451Z,11.05
2022-10-10T03:13:14.444Z,11.00
2022-10-10T03:14:14.421Z,11.02
2022-10-10T03:15:14.410Z,10.94
2022-10-10T03:16:14.435Z,10.94
2022-10-10T03:17:14.446Z,10.92
2022-10-10T03:18:14.369Z,10.90
2022-10-10T03:19:14.355Z,10.89
2022-10-10T03:20:14.348Z,10.89
2022-10-10T03:21:14.349Z,10.90
2022-10-10T03:22:14.340Z,10.89
2022-10-10T03:23:14.305Z,10.90
2022-10-10T03:24:14.297Z,10.87
2022-10-10T03:25:14.297Z,10.87
2022-10-10T03:26:14.261Z,10.87
2022-10-10T03:27:14.250Z,10.87
2022-10-10T03:28:14.278Z,10.86
2022-10-10T03:29:14.222Z,10.84
2022-10-10T03:30:14.257Z,10.84
2022-10-10T03:31:14.217Z,10.82
2022-10-10T03:32:14.182Z,10.82
2022-10-10T03:33:14.165Z,10.84
2022-10-10T03:34:14.200Z,10.84
2022-10-10T03:35:14.170Z,10.81
2022-10-10T03:36:14.123Z,10.78
2022-10-10T03:37:14.127Z,10.75
2022-10-10T03:38:14.108Z,10.72
2022-10-10T03:39:14.086Z,10.76
2022-10-10T03:40:14.106Z,10.76
2022-10-10T03:41:14.089Z,10.76
2022-10-10T03:42:14.042Z,10.75
2022-10-10T03:43:14.028Z,10.74
2022-10-10T03:44:14.035Z,10.74
2022-10-10T03:45:14.042Z,10.71
2022-10-10T03:46:16.428Z,10.72
2022-10-10T03:47:13.975Z,10.74
2022-10-10T03:48:13.965Z,10.71
2022-10-10T03:49:13.976Z,10.71
2022-10-10T03:50:13.944Z,10.71
2022-10-10T03:51:13.922Z,10.69
2022-10-10T03:52:13.915Z,10.69
2022-10-10T03:53:13.891Z,10.69
2022-10-10T03:54:13.926Z,10.69
2022-10-10T03:55:13.865Z,10.68
2022-10-10T03:56:13.852Z,10.68
2022-10-10T03:57:13.841Z,10.63
2022-10-10T03:58:13.843Z,10.63
2022-10-10T03:59:13.858Z,10.57
2022-10-10T04:00:13.825Z,10.53
2022-10-10T04:01:13.895Z,10.53
2022-10-10T04:02:13.777Z,10.48
2022-10-10T04:03:13.760Z,10.42
2022-10-10T04:04:13.779Z,10.42
2022-10-10T04:05:13.768Z,10.40
2022-10-10T04:06:13.754Z,10.37
2022-10-10T04:07:13.735Z,10.35
2022-10-10T04:08:13.703Z,10.34
2022-10-10T04:09:13.684Z,10.34
2022-10-10T04:10:13.672Z,10.31
2022-10-10T04:11:13.680Z,10.31
2022-10-10T04:12:13.649Z,10.31
2022-10-10T04:13:13.625Z,10.28
2022-10-10T04:14:13.624Z,10.25
2022-10-10T04:15:13.627Z,10.22
2022-10-10T04:16:13.590Z,10.22
2022-10-10T04:17:13.575Z,10.22
2022-10-10T04:18:13.556Z,10.19
2022-10-10T04:19:13.575Z,10.17
2022-10-10T04:20:13.557Z,10.16
2022-10-10T04:21:13.522Z,10.15
2022-10-10T04:22:13.534Z,10.09
2022-10-10T04:23:13.486Z,10.09
2022-10-10T04:24:13.506Z,10.05
2022-10-10T04:25:13.473Z,10.04
2022-10-10T04:26:13.452Z,10.02
2022-10-10T04:27:13.461Z,10.02
2022-10-10T04:28:13.525Z,10.01
2022-10-10T04:29:13.411Z,9.97
2022-10-10T04:30:13.402Z,9.95
2022-10-10T04:31:13.379Z,9.94
2022-10-10T04:32:13.393Z,9.94
2022-10-10T04:33:13.353Z,9.92
2022-10-10T04:34:13.348Z,9.91
2022-10-10T04:35:13.370Z,9.89
2022-10-10T04:36:13.334Z,9.87
2022-10-10T04:37:13.319Z,9.87
2022-10-10T04:38:13.278Z,9.87
2022-10-10T04:39:13.325Z,9.87
2022-10-10T04:40:13.265Z,9.91
2022-10-10T04:41:13.271Z,9.89
2022-10-10T04:42:13.258Z,9.89
2022-10-10T04:43:13.218Z,9.89
2022-10-10T04:44:13.213Z,9.91
2022-10-10T04:45:13.187Z,9.89
2022-10-10T04:46:13.178Z,9.89
2022-10-10T04:47:13.219Z,9.91
2022-10-10T04:48:13.151Z,9.91
2022-10-10T04:49:13.132Z,9.89
2022-10-10T04:50:13.119Z,9.89
2022-10-10T04:51:13.135Z,9.89
2022-10-10T04:52:13.116Z,9.91
2022-10-10T04:53:13.078Z,9.89
2022-10-10T04:54:13.077Z,9.87
2022-10-10T04:55:13.064Z,9.89
2022-10-10T04:56:13.065Z,9.87
2022-10-10T04:57:13.026Z,9.86
2022-10-10T04:58:13.013Z,9.83
2022-10-10T04:59:13.004Z,9.82
2022-10-10T05:00:13.015Z,9.82
2022-10-10T05:01:12.993Z,9.77
2022-10-10T05:02:12.979Z,9.77
2022-10-10T05:03:12.947Z,9.74
2022-10-10T05:04:12.938Z,9.72
2022-10-10T05:05:12.955Z,9.68
2022-10-10T05:06:12.912Z,9.66
2022-10-10T05:07:12.893Z,9.65
2022-10-10T05:08:12.875Z,9.64
2022-10-10T05:09:12.883Z,9.64
2022-10-10T05:10:12.880Z,9.64
2022-10-10T05:11:12.843Z,9.64
2022-10-10T05:12:12.824Z,9.64
2022-10-10T05:13:12.803Z,9.62
2022-10-10T05:14:12.799Z,9.61
2022-10-10T05:15:12.805Z,9.61
2022-10-10T05:16:12.766Z,9.59
2022-10-10T05:17:12.754Z,9.58
2022-10-10T05:18:12.774Z,9.56
2022-10-10T05:19:12.728Z,9.55
2022-10-10T05:20:12.760Z,9.54
2022-10-10T05:21:12.714Z,9.54
2022-10-10T05:22:12.693Z,9.51
2022-10-10T05:23:12.720Z,9.50
2022-10-10T05:24:12.662Z,9.47
2022-10-10T05:25:12.644Z,9.50
2022-10-10T05:26:12.677Z,9.54
2022-10-10T05:27:12.621Z,9.59
2022-10-10T05:28:12.698Z,9.56
2022-10-10T05:29:12.589Z,9.54
2022-10-10T05:30:12.619Z,9.51
2022-10-10T05:31:12.588Z,9.51
2022-10-10T05:32:12.571Z,9.47
2022-10-10T05:33:12.536Z,9.46
2022-10-10T05:34:12.556Z,9.46
2022-10-10T05:35:12.511Z,9.44
2022-10-10T05:36:12.498Z,9.47
2022-10-10T05:37:12.506Z,9.46
2022-10-10T05:38:12.509Z,9.46
2022-10-10T05:39:12.455Z,9.46
2022-10-10T05:40:12.475Z,9.46
2022-10-10T05:41:12.442Z,9.47
2022-10-10T05:42:12.415Z,9.44
2022-10-10T05:43:12.407Z,9.46
2022-10-10T05:44:12.388Z,9.43
2022-10-10T05:45:12.410Z,9.43
2022-10-10T05:46:12.366Z,9.44
2022-10-10T05:47:12.346Z,9.43
2022-10-10T05:48:12.379Z,9.44
2022-10-10T05:49:12.315Z,9.46
2022-10-10T05:50:12.318Z,9.47
2022-10-10T05:51:12.331Z,9.47
2022-10-10T05:52:12.284Z,9.46
2022-10-10T05:53:12.303Z,9.43
2022-10-10T05:54:12.254Z,9.40
2022-10-10T05:55:12.261Z,9.36
2022-10-10T05:56:12.268Z,9.40
2022-10-10T05:57:16.224Z,9.40
2022-10-10T05:58:12.207Z,9.36
2022-10-10T05:59:12.184Z,9.39
2022-10-10T06:00:12.214Z,9.40
2022-10-10T06:01:12.196Z,9.40
2022-10-10T06:02:12.224Z,9.43
2022-10-10T06:03:12.132Z,9.41
2022-10-10T06:04:12.117Z,9.43
2022-10-10T06:05:12.129Z,9.43
2022-10-10T06:06:12.097Z,9.43
2022-10-10T06:07:12.099Z,9.44
2022-10-10T06:08:12.655Z,9.46
2022-10-10T06:09:12.053Z,9.46
2022-10-10T06:10:12.052Z,9.46
2022-10-10T06:11:12.027Z,9.46
2022-10-10T06:12:12.021Z,9.44
2022-10-10T06:13:11.998Z,9.47
2022-10-10T06:14:12.008Z,9.46
2022-10-10T06:15:11.976Z,9.47
2022-10-10T06:16:11.972Z,9.47
2022-10-10T06:17:11.968Z,9.47
2022-10-10T06:18:11.943Z,9.44
2022-10-10T06:19:14.905Z,9.44
2022-10-10T06:20:11.950Z,9.43
2022-10-10T06:21:11.893Z,9.41
2022-10-10T06:22:11.880Z,9.41
2022-10-10T06:23:11.858Z,9.43
2022-10-10T06:24:11.876Z,9.40
2022-10-10T06:25:29.006Z,9.39
2022-10-10T06:26:11.836Z,9.40
2022-10-10T06:27:11.813Z,9.40
2022-10-10T06:28:11.869Z,9.41
2022-10-10T06:29:11.812Z,9.41
2022-10-10T06:30:11.791Z,9.44
2022-10-10T06:31:11.762Z,9.46
2022-10-10T06:32:11.763Z,9.46
2022-10-10T06:33:11.739Z,9.46
2022-10-10T06:34:11.743Z,9.47
2022-10-10T06:35:11.706Z,9.47
2022-10-10T06:36:11.698Z,9.48
2022-10-10T06:37:11.692Z,9.47
2022-10-10T06:38:11.662Z,9.47
2022-10-10T06:39:11.672Z,9.47
2022-10-10T06:40:11.682Z,9.46
2022-10-10T06:41:11.629Z,9.50
2022-10-10T06:42:11.636Z,9.51
2022-10-10T06:43:11.624Z,9.54
2022-10-10T06:44:11.611Z,9.55
2022-10-10T06:45:11.569Z,9.56
2022-10-10T06:46:11.602Z,9.58
2022-10-10T06:47:11.526Z,9.59
2022-10-10T06:48:11.569Z,9.61
2022-10-10T06:49:11.538Z,9.64
2022-10-10T06:50:11.498Z,9.65
2022-10-10T06:51:11.500Z,9.66
2022-10-10T06:52:11.494Z,9.69
2022-10-10T06:53:11.459Z,9.73
2022-10-10T06:54:11.472Z,9.77
2022-10-10T06:55:11.440Z,9.79
2022-10-10T06:56:11.493Z,9.82
2022-10-10T06:57:11.412Z,9.84
2022-10-10T06:58:11.391Z,9.87
2022-10-10T06:59:11.450Z,9.91
2022-10-10T07:00:11.367Z,9.94
2022-10-10T07:01:11.403Z,9.98
2022-10-10T07:02:11.356Z,10.04
2022-10-10T07:03:11.325Z,10.09
2022-10-10T07:04:11.325Z,10.15
2022-10-10T07:05:11.297Z,10.20
2022-10-10T07:06:11.281Z,10.23
2022-10-10T07:07:11.311Z,10.26
2022-10-10T07:08:11.254Z,10.34
2022-10-10T07:09:11.260Z,10.40
2022-10-10T07:10:11.222Z,10.44
2022-10-10T07:11:11.218Z,10.49
2022-10-10T07:12:11.236Z,10.57
2022-10-10T07:13:11.180Z,10.63
2022-10-10T07:14:11.177Z,10.67
2022-10-10T07:15:11.165Z,10.69
2022-10-10T07:16:11.164Z,10.75
2022-10-10T07:17:11.132Z,10.78
2022-10-10T07:18:11.150Z,10.82
2022-10-10T07:19:11.126Z,10.89
2022-10-10T07:20:11.089Z,10.94
2022-10-10T07:21:11.098Z,10.99
2022-10-10T07:22:11.068Z,11.05
2022-10-10T07:23:11.081Z,11.08
2022-10-10T07:24:11.058Z,11.14
2022-10-10T07:25:11.015Z,11.18
2022-10-10T07:26:11.015Z,11.23
2022-10-10T07:27:11.013Z,11.30
2022-10-10T07:28:11.069Z,11.35
2022-10-10T07:29:10.995Z,11.44
2022-10-10T07:30:10.958Z,11.51
2022-10-10T07:31:10.933Z,11.57
2022-10-10T07:32:10.934Z,11.65
2022-10-10T07:33:10.918Z,11.72
2022-10-10T07:34:10.938Z,11.78
2022-10-10T07:35:10.889Z,11.87
2022-10-10T07:36:10.895Z,11.94
2022-10-10T07:37:10.867Z,12.09
2022-10-10T07:38:10.835Z,12.17
2022-10-10T07:39:13.852Z,12.25
2022-10-10T07:40:10.854Z,12.32
2022-10-10T07:41:10.796Z,12.40
2022-10-10T07:42:10.790Z,12.49
2022-10-10T07:43:10.781Z,12.55
2022-10-10T07:44:10.793Z,12.65
2022-10-10T07:45:10.762Z,12.73
2022-10-10T07:46:12.291Z,12.82
2022-10-10T07:47:10.722Z,12.91
2022-10-10T07:48:10.728Z,13.00
2022-10-10T07:49:10.698Z,13.09
2022-10-10T07:50:10.722Z,13.15
2022-10-10T07:51:10.708Z,13.25
2022-10-10T07:52:10.655Z,13.35
2022-10-10T07:53:10.657Z,13.46
2022-10-10T07:54:10.641Z,13.57
2022-10-10T07:55:10.622Z,13.68
2022-10-10T07:56:10.610Z,13.77
2022-10-10T07:57:10.622Z,13.85
2022-10-10T07:58:10.567Z,13.92
2022-10-10T07:59:10.639Z,14.00
2022-10-10T08:00:10.563Z,14.11
2022-10-10T08:01:10.530Z,14.14
2022-10-10T08:02:10.583Z,14.17
2022-10-10T08:03:12.108Z,14.20
2022-10-10T08:04:10.512Z,14.25
2022-10-10T08:05:10.472Z,14.32
2022-10-10T08:06:10.463Z,14.36
2022-10-10T08:07:10.487Z,14.45
2022-10-10T08:08:10.437Z,14.53
2022-10-10T08:09:10.440Z,14.62
2022-10-10T08:10:10.399Z,14.78
2022-10-10T08:11:10.393Z,14.85
2022-10-10T08:12:10.418Z,14.89
2022-10-10T08:13:10.365Z,15.00
2022-10-10T08:14:10.362Z,15.06
2022-10-10T08:16:10.362Z,15.22
2022-10-10T08:17:10.327Z,15.35
2022-10-10T08:18:10.373Z,15.43
2022-10-10T08:19:10.375Z,15.54
2022-10-10T08:20:10.269Z,15.61
2022-10-10T08:21:10.283Z,15.67
2022-10-10T08:22:10.255Z,15.73
2022-10-10T08:23:10.235Z,15.82
2022-10-10T08:24:10.262Z,15.90
2022-10-10T08:25:10.205Z,15.95
2022-10-10T08:26:10.188Z,15.97
2022-10-10T08:27:10.181Z,15.95
2022-10-10T08:28:10.202Z,15.97
2022-10-10T08:29:10.162Z,15.94
2022-10-10T08:30:10.144Z,15.94
2022-10-10T08:31:10.153Z,15.94
2022-10-10T08:32:10.110Z,15.98
2022-10-10T08:33:10.106Z,16.04
2022-10-10T08:34:10.077Z,16.17
2022-10-10T08:35:10.078Z,16.28
2022-10-10T08:36:10.073Z,16.35
2022-10-10T08:37:10.039Z,16.46
2022-10-10T08:38:10.022Z,16.51
2022-10-10T08:39:10.046Z,16.61
2022-10-10T08:40:09.993Z,16.69
2022-10-10T08:41:09.987Z,16.76
2022-10-10T08:42:09.989Z,16.87
2022-10-10T08:43:09.960Z,16.97
2022-10-10T08:44:09.949Z,17.11
2022-10-10T08:45:09.966Z,17.20
2022-10-10T08:46:09.926Z,17.27
2022-10-10T08:47:09.948Z,17.38
2022-10-10T08:48:09.913Z,17.49
2022-10-10T08:49:13.809Z,17.60
2022-10-10T08:50:09.874Z,17.72
2022-10-10T08:51:09.864Z,17.86
2022-10-10T08:52:09.873Z,17.94
2022-10-10T08:53:09.929Z,18.03
2022-10-10T08:54:09.811Z,18.04
2022-10-10T08:55:09.799Z,18.07
2022-10-10T08:56:09.806Z,18.08
2022-10-10T08:57:09.818Z,18.10
2022-10-10T08:58:09.760Z,18.15
2022-10-10T08:59:09.758Z,18.20
2022-10-10T09:00:09.734Z,18.26
2022-10-10T09:01:09.745Z,18.35
2022-10-10T09:02:17.930Z,18.50
2022-10-10T09:03:09.710Z,18.58
2022-10-10T09:04:09.687Z,18.66
2022-10-10T09:05:09.681Z,18.80
2022-10-10T09:06:09.671Z,18.89
2022-10-10T09:07:09.681Z,18.95
2022-10-10T09:08:09.628Z,19.14
2022-10-10T09:09:09.618Z,19.27
2022-10-10T09:10:09.602Z,19.41
2022-10-10T09:11:09.584Z,19.54
2022-10-10T09:12:09.630Z,19.66
2022-10-10T09:13:09.571Z,19.77
2022-10-10T09:14:09.543Z,19.82
2022-10-10T09:15:09.534Z,19.84
2022-10-10T09:16:09.500Z,19.79
2022-10-10T09:17:09.574Z,19.76
2022-10-10T09:18:09.509Z,19.76
2022-10-10T09:19:10.837Z,19.69
2022-10-10T09:20:09.476Z,19.66
2022-10-10T09:21:09.453Z,19.67
2022-10-10T09:22:09.464Z,19.73
2022-10-10T09:23:09.419Z,19.79
2022-10-10T09:24:09.399Z,19.85
2022-10-10T09:25:09.392Z,19.82
2022-10-10T09:26:11.499Z,19.86
2022-10-10T09:27:09.380Z,19.92
2022-10-10T09:28:09.460Z,19.96
2022-10-10T09:29:09.371Z,20.02
2022-10-10T09:30:09.323Z,20.07
2022-10-10T09:31:09.315Z,20.14
2022-10-10T09:32:09.295Z,20.26
2022-10-10T09:33:09.295Z,20.32
2022-10-10T09:34:09.303Z,20.41
2022-10-10T09:35:09.304Z,20.52
2022-10-10T09:36:09.237Z,20.59
2022-10-10T09:37:11.438Z,20.65
2022-10-10T09:38:09.227Z,20.63
2022-10-10T09:39:09.221Z,20.67
2022-10-10T09:40:09.186Z,20.72
2022-10-10T09:41:09.184Z,20.74
2022-10-10T09:42:09.154Z,20.84
2022-10-10T09:43:10.839Z,20.82
2022-10-10T09:44:09.135Z,20.82
2022-10-10T09:45:09.150Z,20.81
2022-10-10T09:46:09.134Z,20.81
2022-10-10T09:47:09.094Z,20.85
2022-10-10T09:48:09.089Z,20.85
2022-10-10T09:49:09.064Z,20.90
2022-10-10T09:50:09.067Z,20.96
2022-10-10T09:51:09.039Z,20.96
2022-10-10T09:52:09.083Z,21.00
2022-10-10T09:53:09.023Z,21.05
2022-10-10T09:54:08.990Z,21.11
2022-10-10T09:55:09.006Z,21.15
2022-10-10T09:56:08.971Z,21.18
2022-10-10T09:57:09.012Z,21.18
2022-10-10T09:58:08.935Z,21.18
2022-10-10T09:59:08.935Z,21.20
2022-10-10T10:00:08.925Z,21.20
2022-10-10T10:01:08.985Z,21.17
2022-10-10T10:02:08.922Z,21.06
2022-10-10T10:03:08.884Z,21.09
2022-10-10T10:04:26.458Z,21.12
2022-10-10T10:05:08.857Z,21.17
2022-10-10T10:06:08.832Z,21.11
2022-10-10T10:07:08.820Z,21.15
2022-10-10T10:08:08.808Z,21.18
2022-10-10T10:09:08.823Z,21.42
2022-10-10T10:10:08.785Z,21.57
2022-10-10T10:11:08.773Z,21.57
2022-10-10T10:12:08.753Z,21.46
2022-10-10T10:13:08.743Z,21.46
2022-10-10T10:14:08.759Z,21.51
2022-10-10T10:15:08.716Z,21.48
2022-10-10T10:16:08.699Z,21.48
2022-10-10T10:17:08.690Z,21.52
2022-10-10T10:18:08.672Z,21.51
2022-10-10T10:19:08.686Z,21.50
2022-10-10T10:20:10.833Z,21.57
2022-10-10T10:21:08.665Z,21.57
2022-10-10T10:22:08.616Z,21.60
2022-10-10T10:23:08.603Z,21.60
2022-10-10T10:24:08.619Z,21.54
2022-10-10T10:25:08.576Z,21.50
2022-10-10T10:26:08.562Z,21.40
2022-10-10T10:27:08.567Z,21.36
2022-10-10T10:28:08.600Z,21.33
2022-10-10T10:29:08.554Z,21.33
2022-10-10T10:30:08.497Z,21.33
2022-10-10T10:31:08.492Z,21.27
2022-10-10T10:32:08.513Z,21.25
2022-10-10T10:33:08.463Z,21.27
2022-10-10T10:34:08.477Z,21.27
2022-10-10T10:35:08.441Z,21.30
2022-10-10T10:36:08.419Z,21.42
2022-10-10T10:37:12.647Z,21.69
2022-10-10T10:38:08.423Z,21.95
2022-10-10T10:39:08.417Z,22.04
2022-10-10T10:40:08.397Z,22.11
2022-10-10T10:41:08.356Z,22.30
2022-10-10T10:42:08.347Z,22.62
2022-10-10T10:43:08.327Z,22.87
2022-10-10T10:44:08.345Z,22.99
2022-10-10T10:45:08.303Z,23.17
2022-10-10T10:46:08.296Z,23.25
2022-10-10T10:47:08.275Z,23.34
2022-10-10T10:48:08.252Z,23.34
2022-10-10T10:49:08.313Z,23.54
2022-10-10T10:50:08.241Z,23.86
2022-10-10T10:51:08.255Z,24.17
2022-10-10T10:52:08.206Z,24.33
2022-10-10T10:53:08.196Z,24.50
2022-10-10T10:54:08.176Z,24.68
2022-10-10T10:55:08.199Z,24.92
2022-10-10T10:56:08.152Z,25.08
2022-10-10T10:57:11.115Z,25.23
2022-10-10T10:58:57.929Z,25.36
2022-10-10T10:59:36.358Z,25.43
2022-10-10T11:00:21.616Z,25.35
2022-10-10T11:01:22.334Z,25.54
2022-10-10T11:02:08.800Z,25.63
2022-10-10T11:03:27.751Z,25.68
2022-10-10T11:05:21.394Z,25.70
2022-10-10T11:05:39.888Z,25.77
2022-10-10T11:06:08.205Z,25.87
2022-10-10T11:07:18.961Z,26.00
2022-10-10T11:08:08.131Z,26.19
2022-10-10T11:09:13.554Z,26.25
2022-10-10T11:10:07.972Z,26.33
2022-10-10T11:11:07.975Z,26.26
2022-10-10T11:12:07.942Z,26.37
2022-10-10T11:13:07.933Z,26.44
2022-10-10T11:14:07.949Z,26.53
2022-10-10T11:15:07.913Z,26.63
2022-10-10T11:16:10.860Z,26.65
2022-10-10T11:17:07.879Z,26.75
2022-10-10T11:18:07.881Z,26.75
2022-10-10T11:19:07.881Z,26.75
2022-10-10T11:20:07.865Z,26.77
2022-10-10T11:21:07.873Z,26.84
2022-10-10T11:22:07.811Z,26.90
2022-10-10T11:32:22.092Z,27.10
2022-10-10T11:32:27.150Z,27.18
2022-10-10T11:33:27.159Z,27.22
2022-10-10T11:34:27.127Z,27.27
2022-10-10T11:35:27.147Z,27.26
2022-10-10T11:36:27.131Z,27.11
2022-10-10T11:37:27.098Z,27.15
2022-10-10T11:38:27.114Z,27.14
2022-10-10T11:39:27.073Z,27.12
2022-10-10T11:40:27.061Z,27.20
2022-10-10T11:41:27.053Z,27.12
2022-10-10T11:42:27.055Z,26.90
2022-10-10T11:43:27.016Z,26.83
2022-10-10T11:44:27.011Z,26.95
2022-10-10T11:45:27.001Z,27.05
2022-10-10T11:46:27.020Z,27.03
2022-10-10T11:47:26.984Z,27.12
2022-10-10T11:48:27.004Z,26.95
2022-10-10T11:49:26.944Z,26.84
2022-10-10T11:50:26.927Z,26.88
2022-10-10T11:51:26.915Z,27.07
2022-10-10T11:52:33.972Z,26.99
2022-10-10T11:53:26.925Z,26.90
2022-10-10T11:54:26.873Z,26.88
2022-10-10T11:55:26.884Z,26.95
2022-10-10T11:56:26.845Z,27.00
2022-10-10T11:57:26.890Z,26.96
2022-10-10T11:58:26.851Z,26.85
2022-10-10T11:59:26.832Z,26.81
2022-10-10T12:00:26.807Z,26.71
2022-10-10T12:01:26.783Z,26.68
2022-10-10T12:02:28.029Z,26.77
2022-10-10T12:03:26.772Z,26.71
2022-10-10T12:04:26.745Z,26.70
2022-10-10T12:05:26.743Z,26.80
2022-10-10T12:06:26.744Z,26.88
2022-10-10T12:07:26.711Z,26.92
2022-10-10T12:08:26.684Z,26.99
2022-10-10T12:09:26.693Z,27.05
2022-10-10T12:10:26.684Z,27.10
2022-10-10T12:11:26.664Z,27.21
2022-10-10T12:12:26.641Z,27.21
2022-10-10T12:13:26.630Z,27.12
2022-10-10T12:14:26.608Z,27.17
2022-10-10T12:15:26.622Z,27.21
2022-10-10T12:16:30.387Z,27.26
2022-10-10T12:17:26.621Z,27.25
2022-10-10T12:18:26.545Z,27.29
2022-10-10T12:19:26.574Z,27.22
2022-10-10T12:20:26.538Z,27.27
2022-10-10T12:21:26.528Z,27.21
2022-10-10T12:22:26.513Z,27.17
2022-10-10T12:23:26.516Z,27.22
2022-10-10T12:24:26.489Z,27.22
2022-10-10T12:25:26.464Z,27.29
2022-10-10T12:26:26.452Z,27.35
2022-10-10T12:27:26.455Z,27.30
2022-10-10T12:28:26.460Z,27.33
2022-10-10T12:29:26.447Z,27.33
2022-10-10T12:30:26.411Z,27.35
2022-10-10T12:31:26.407Z,27.47
2022-10-10T12:32:26.373Z,27.48
2022-10-10T12:33:26.402Z,27.45
2022-10-10T12:34:26.348Z,27.48
2022-10-10T12:35:26.347Z,27.48
2022-10-10T12:36:26.316Z,27.52
2022-10-10T12:37:26.315Z,27.54
2022-10-10T12:38:26.326Z,27.51
2022-10-10T12:39:26.284Z,27.51
2022-10-10T12:40:26.276Z,27.64
2022-10-10T12:41:26.312Z,27.71
2022-10-10T12:42:26.274Z,27.71
2022-10-10T12:43:26.260Z,27.65
2022-10-10T12:44:26.211Z,27.71
2022-10-10T12:45:26.211Z,27.67
2022-10-10T12:46:26.188Z,27.55
2022-10-10T12:47:35.816Z,27.47
2022-10-10T12:48:26.171Z,27.44
2022-10-10T12:49:26.184Z,27.45
2022-10-10T12:50:26.181Z,27.54
2022-10-10T12:51:26.142Z,27.48
2022-10-10T12:52:26.147Z,27.48
2022-10-10T12:53:26.091Z,27.51
2022-10-10T12:54:26.079Z,27.60
2022-10-10T12:55:26.083Z,27.65
2022-10-10T12:56:26.093Z,27.68
2022-10-10T12:57:26.046Z,27.75
2022-10-10T12:58:27.384Z,27.78
2022-10-10T12:59:26.053Z,27.74
2022-10-10T13:00:26.009Z,27.74
2022-10-10T13:01:26.097Z,27.75
2022-10-10T13:02:25.988Z,27.77
2022-10-10T13:03:25.975Z,27.70
2022-10-10T13:04:25.991Z,27.65
2022-10-10T13:05:25.948Z,27.64
2022-10-10T13:06:25.965Z,27.73
2022-10-10T13:07:25.932Z,27.68
2022-10-10T13:08:25.911Z,27.67
2022-10-10T13:09:28.038Z,27.77
2022-10-10T13:10:25.908Z,27.67
2022-10-10T13:11:25.874Z,27.60